sensor_id;sensor_type;location;lat;lon;timestamp;temperature;humidity
3868;DHT22;1949;48.152;11.528;2022-07-09T00:01:41;21.80;35.70
3868;DHT22;1949;48.152;11.528;2022-07-09T00:04:06;21.70;35.70
3868;DHT22;1949;48.152;11.528;2022-07-09T00:06:32;21.70;35.80
3868;DHT22;1949;48.152;11.528;2022-07-09T00:08:58;21.70;35.80
3868;DHT22;1949;48.152;11.528;2022-07-09T00:11:24;21.60;35.90
3868;DHT22;1949;48.152;11.528;2022-07-09T00:13:51;21.60;36.00
3868;DHT22;1949;48.152;11.528;2022-07-09T00:16:17;21.60;36.00
3868;DHT22;1949;48.152;11.528;2022-07-09T00:18:45;21.60;36.20
3868;DHT22;1949;48.152;11.528;2022-07-09T00:21:14;21.60;36.20
3868;DHT22;1949;48.152;11.528;2022-07-09T00:23:39;21.60;36.20
3868;DHT22;1949;48.152;11.528;2022-07-09T00:26:06;21.70;36.30
3868;DHT22;1949;48.152;11.528;2022-07-09T00:28:37;21.70;36.30
3868;DHT22;1949;48.152;11.528;2022-07-09T00:31:03;21.80;36.30
3868;DHT22;1949;48.152;11.528;2022-07-09T00:33:28;21.90;36.30
3868;DHT22;1949;48.152;11.528;2022-07-09T00:35:54;21.90;36.20
3868;DHT22;1949;48.152;11.528;2022-07-09T00:38:20;21.90;36.70
3868;DHT22;1949;48.152;11.528;2022-07-09T00:40:50;21.90;36.20
3868;DHT22;1949;48.152;11.528;2022-07-09T00:43:21;21.90;36.30
3868;DHT22;1949;48.152;11.528;2022-07-09T00:45:49;22.00;36.40
3868;DHT22;1949;48.152;11.528;2022-07-09T00:48:16;22.00;36.20
3868;DHT22;1949;48.152;11.528;2022-07-09T00:50:47;22.00;36.10
3868;DHT22;1949;48.152;11.528;2022-07-09T00:53:15;22.10;36.20
3868;DHT22;1949;48.152;11.528;2022-07-09T00:55:41;22.10;36.10
3868;DHT22;1949;48.152;11.528;2022-07-09T00:58:12;22.10;36.10
3868;DHT22;1949;48.152;11.528;2022-07-09T01:00:41;22.00;35.90
3868;DHT22;1949;48.152;11.528;2022-07-09T01:03:12;22.00;36.10
3868;DHT22;1949;48.152;11.528;2022-07-09T01:05:39;22.00;36.30
3868;DHT22;1949;48.152;11.528;2022-07-09T01:08:06;22.00;36.30
3868;DHT22;1949;48.152;11.528;2022-07-09T01:10:35;22.00;36.30
3868;DHT22;1949;48.152;11.528;2022-07-09T01:13:02;21.90;36.20
3868;DHT22;1949;48.152;11.528;2022-07-09T01:15:31;21.90;36.20
3868;DHT22;1949;48.152;11.528;2022-07-09T01:17:57;21.90;36.30
3868;DHT22;1949;48.152;11.528;2022-07-09T01:20:28;22.00;36.40
3868;DHT22;1949;48.152;11.528;2022-07-09T01:22:58;21.90;36.30
3868;DHT22;1949;48.152;11.528;2022-07-09T01:25:38;22.00;36.40
3868;DHT22;1949;48.152;11.528;2022-07-09T01:28:08;22.00;36.30
3868;DHT22;1949;48.152;11.528;2022-07-09T01:30:46;21.90;36.40
3868;DHT22;1949;48.152;11.528;2022-07-09T01:33:12;21.80;36.10
3868;DHT22;1949;48.152;11.528;2022-07-09T01:35:46;21.70;36.20
3868;DHT22;1949;48.152;11.528;2022-07-09T01:38:15;21.60;36.50
3868;DHT22;1949;48.152;11.528;2022-07-09T01:40:40;21.60;36.70
3868;DHT22;1949;48.152;11.528;2022-07-09T01:43:08;21.40;36.60
3868;DHT22;1949;48.152;11.528;2022-07-09T01:45:36;21.40;36.70
3868;DHT22;1949;48.152;11.528;2022-07-09T01:48:02;21.30;37.00
3868;DHT22;1949;48.152;11.528;2022-07-09T01:50:36;21.30;37.20
3868;DHT22;1949;48.152;11.528;2022-07-09T01:53:02;21.20;37.30
3868;DHT22;1949;48.152;11.528;2022-07-09T01:55:29;21.20;37.30
3868;DHT22;1949;48.152;11.528;2022-07-09T01:57:56;21.20;37.30
3868;DHT22;1949;48.152;11.528;2022-07-09T02:00:24;21.10;37.30
3868;DHT22;1949;48.152;11.528;2022-07-09T02:02:51;21.00;37.50
3868;DHT22;1949;48.152;11.528;2022-07-09T02:05:20;21.00;37.70
3868;DHT22;1949;48.152;11.528;2022-07-09T02:07:46;20.90;37.80
3868;DHT22;1949;48.152;11.528;2022-07-09T02:10:13;20.80;37.70
3868;DHT22;1949;48.152;11.528;2022-07-09T02:12:46;20.80;37.90
3868;DHT22;1949;48.152;11.528;2022-07-09T02:15:21;20.70;38.10
3868;DHT22;1949;48.152;11.528;2022-07-09T02:17:48;20.70;38.30
3868;DHT22;1949;48.152;11.528;2022-07-09T02:20:16;20.70;38.30
3868;DHT22;1949;48.152;11.528;2022-07-09T02:22:41;20.70;38.50
3868;DHT22;1949;48.152;11.528;2022-07-09T02:25:09;20.80;38.60
3868;DHT22;1949;48.152;11.528;2022-07-09T02:27:36;20.80;38.70
3868;DHT22;1949;48.152;11.528;2022-07-09T02:30:02;20.90;38.70
3868;DHT22;1949;48.152;11.528;2022-07-09T02:32:38;21.00;38.70
3868;DHT22;1949;48.152;11.528;2022-07-09T02:35:06;21.00;38.60
3868;DHT22;1949;48.152;11.528;2022-07-09T02:37:37;21.00;38.60
3868;DHT22;1949;48.152;11.528;2022-07-09T02:40:04;21.00;38.80
3868;DHT22;1949;48.152;11.528;2022-07-09T02:42:30;21.00;38.80
3868;DHT22;1949;48.152;11.528;2022-07-09T02:44:55;21.00;39.00
3868;DHT22;1949;48.152;11.528;2022-07-09T02:47:21;21.00;39.00
3868;DHT22;1949;48.152;11.528;2022-07-09T02:49:48;21.00;39.00
3868;DHT22;1949;48.152;11.528;2022-07-09T02:52:18;21.00;39.10
3868;DHT22;1949;48.152;11.528;2022-07-09T02:54:44;21.00;39.20
3868;DHT22;1949;48.152;11.528;2022-07-09T02:57:11;20.90;39.00
3868;DHT22;1949;48.152;11.528;2022-07-09T02:59:38;20.90;39.20
3868;DHT22;1949;48.152;11.528;2022-07-09T03:02:05;20.80;39.20
3868;DHT22;1949;48.152;11.528;2022-07-09T03:04:33;20.70;39.30
3868;DHT22;1949;48.152;11.528;2022-07-09T03:06:59;20.70;39.50
3868;DHT22;1949;48.152;11.528;2022-07-09T03:09:27;20.60;39.60
3868;DHT22;1949;48.152;11.528;2022-07-09T03:11:54;20.60;39.60
3868;DHT22;1949;48.152;11.528;2022-07-09T03:14:21;20.60;39.80
3868;DHT22;1949;48.152;11.528;2022-07-09T03:16:47;20.60;39.90
3868;DHT22;1949;48.152;11.528;2022-07-09T03:19:14;20.70;40.00
3868;DHT22;1949;48.152;11.528;2022-07-09T03:21:46;20.80;40.00
3868;DHT22;1949;48.152;11.528;2022-07-09T03:24:12;20.90;40.10
3868;DHT22;1949;48.152;11.528;2022-07-09T03:26:46;20.90;40.00
3868;DHT22;1949;48.152;11.528;2022-07-09T03:29:12;21.00;40.00
3868;DHT22;1949;48.152;11.528;2022-07-09T03:31:38;21.00;39.90
3868;DHT22;1949;48.152;11.528;2022-07-09T03:34:07;21.10;40.00
3868;DHT22;1949;48.152;11.528;2022-07-09T03:36:33;21.10;40.10
3868;DHT22;1949;48.152;11.528;2022-07-09T03:38:59;21.20;40.10
3868;DHT22;1949;48.152;11.528;2022-07-09T03:41:25;21.20;40.00
3868;DHT22;1949;48.152;11.528;2022-07-09T03:43:51;21.40;40.20
3868;DHT22;1949;48.152;11.528;2022-07-09T03:46:29;21.40;40.10
3868;DHT22;1949;48.152;11.528;2022-07-09T03:48:58;21.50;40.00
3868;DHT22;1949;48.152;11.528;2022-07-09T03:51:31;21.50;40.00
3868;DHT22;1949;48.152;11.528;2022-07-09T03:53:57;21.50;40.00
3868;DHT22;1949;48.152;11.528;2022-07-09T03:56:24;21.60;40.00
3868;DHT22;1949;48.152;11.528;2022-07-09T03:58:50;21.60;40.10
3868;DHT22;1949;48.152;11.528;2022-07-09T04:01:16;21.60;40.10
3868;DHT22;1949;48.152;11.528;2022-07-09T04:03:43;21.60;40.00
3868;DHT22;1949;48.152;11.528;2022-07-09T04:06:09;21.60;40.20
3868;DHT22;1949;48.152;11.528;2022-07-09T04:08:35;21.60;40.30
3868;DHT22;1949;48.152;11.528;2022-07-09T04:11:02;21.60;40.30
3868;DHT22;1949;48.152;11.528;2022-07-09T04:13:28;21.60;40.40
3868;DHT22;1949;48.152;11.528;2022-07-09T04:15:54;21.50;40.30
3868;DHT22;1949;48.152;11.528;2022-07-09T04:18:20;21.40;40.40
3868;DHT22;1949;48.152;11.528;2022-07-09T04:20:46;21.40;40.50
3868;DHT22;1949;48.152;11.528;2022-07-09T04:23:15;21.40;40.70
3868;DHT22;1949;48.152;11.528;2022-07-09T04:25:43;21.40;40.80
3868;DHT22;1949;48.152;11.528;2022-07-09T04:28:14;21.30;40.80
3868;DHT22;1949;48.152;11.528;2022-07-09T04:30:51;21.30;40.80
3868;DHT22;1949;48.152;11.528;2022-07-09T04:33:18;21.20;40.80
3868;DHT22;1949;48.152;11.528;2022-07-09T04:35:49;21.20;41.00
3868;DHT22;1949;48.152;11.528;2022-07-09T04:38:14;21.20;41.30
3868;DHT22;1949;48.152;11.528;2022-07-09T04:40:40;21.20;41.30
3868;DHT22;1949;48.152;11.528;2022-07-09T04:43:07;21.10;41.30
3868;DHT22;1949;48.152;11.528;2022-07-09T04:45:33;21.10;41.50
3868;DHT22;1949;48.152;11.528;2022-07-09T04:48:00;21.10;41.50
3868;DHT22;1949;48.152;11.528;2022-07-09T04:50:26;21.10;41.50
3868;DHT22;1949;48.152;11.528;2022-07-09T04:52:56;21.10;41.70
3868;DHT22;1949;48.152;11.528;2022-07-09T04:55:23;21.10;41.90
3868;DHT22;1949;48.152;11.528;2022-07-09T04:57:51;21.10;41.80
3868;DHT22;1949;48.152;11.528;2022-07-09T05:00:16;21.20;41.90
3868;DHT22;1949;48.152;11.528;2022-07-09T05:02:44;21.20;41.90
3868;DHT22;1949;48.152;11.528;2022-07-09T05:05:11;21.20;42.00
3868;DHT22;1949;48.152;11.528;2022-07-09T05:07:40;21.30;42.00
3868;DHT22;1949;48.152;11.528;2022-07-09T05:10:10;21.30;42.10
3868;DHT22;1949;48.152;11.528;2022-07-09T05:12:39;21.40;42.10
3868;DHT22;1949;48.152;11.528;2022-07-09T05:15:06;21.40;42.00
3868;DHT22;1949;48.152;11.528;2022-07-09T05:17:39;21.50;42.00
3868;DHT22;1949;48.152;11.528;2022-07-09T05:20:07;21.50;42.00
3868;DHT22;1949;48.152;11.528;2022-07-09T05:22:35;21.50;41.90
3868;DHT22;1949;48.152;11.528;2022-07-09T05:25:04;21.60;42.00
3868;DHT22;1949;48.152;11.528;2022-07-09T05:27:31;21.60;42.10
3868;DHT22;1949;48.152;11.528;2022-07-09T05:30:00;21.70;42.10
3868;DHT22;1949;48.152;11.528;2022-07-09T05:32:28;21.70;42.00
3868;DHT22;1949;48.152;11.528;2022-07-09T05:34:54;21.80;42.00
3868;DHT22;1949;48.152;11.528;2022-07-09T05:37:22;21.80;41.90
3868;DHT22;1949;48.152;11.528;2022-07-09T05:39:48;21.80;41.80
3868;DHT22;1949;48.152;11.528;2022-07-09T05:42:15;21.80;41.90
3868;DHT22;1949;48.152;11.528;2022-07-09T05:44:46;21.90;42.00
3868;DHT22;1949;48.152;11.528;2022-07-09T05:47:12;21.90;42.00
3868;DHT22;1949;48.152;11.528;2022-07-09T05:49:40;21.90;42.00
3868;DHT22;1949;48.152;11.528;2022-07-09T05:52:09;21.90;41.90
3868;DHT22;1949;48.152;11.528;2022-07-09T05:54:37;22.00;42.00
3868;DHT22;1949;48.152;11.528;2022-07-09T05:57:03;22.00;41.90
3868;DHT22;1949;48.152;11.528;2022-07-09T05:59:30;22.00;41.80
3868;DHT22;1949;48.152;11.528;2022-07-09T06:01:56;22.00;41.80
3868;DHT22;1949;48.152;11.528;2022-07-09T06:04:22;22.00;41.80
3868;DHT22;1949;48.152;11.528;2022-07-09T06:06:47;22.00;41.80
3868;DHT22;1949;48.152;11.528;2022-07-09T06:09:14;22.10;41.90
3868;DHT22;1949;48.152;11.528;2022-07-09T06:11:40;22.10;41.80
3868;DHT22;1949;48.152;11.528;2022-07-09T06:14:15;22.20;41.80
3868;DHT22;1949;48.152;11.528;2022-07-09T06:16:43;22.20;41.80
3868;DHT22;1949;48.152;11.528;2022-07-09T06:19:13;22.20;42.30
3868;DHT22;1949;48.152;11.528;2022-07-09T06:21:40;22.20;41.80
3868;DHT22;1949;48.152;11.528;2022-07-09T06:24:11;22.20;41.70
3868;DHT22;1949;48.152;11.528;2022-07-09T06:26:38;22.20;41.60
3868;DHT22;1949;48.152;11.528;2022-07-09T06:29:03;22.20;41.70
3868;DHT22;1949;48.152;11.528;2022-07-09T06:31:30;22.20;41.70
3868;DHT22;1949;48.152;11.528;2022-07-09T06:33:57;22.20;41.70
3868;DHT22;1949;48.152;11.528;2022-07-09T06:36:28;22.20;41.70
3868;DHT22;1949;48.152;11.528;2022-07-09T06:38:55;22.20;41.70
3868;DHT22;1949;48.152;11.528;2022-07-09T06:41:40;22.20;41.50
3868;DHT22;1949;48.152;11.528;2022-07-09T06:44:06;22.20;41.50
3868;DHT22;1949;48.152;11.528;2022-07-09T06:46:32;22.20;41.30
3868;DHT22;1949;48.152;11.528;2022-07-09T06:49:00;22.20;41.30
3868;DHT22;1949;48.152;11.528;2022-07-09T06:51:33;22.20;41.40
3868;DHT22;1949;48.152;11.528;2022-07-09T06:54:01;22.20;41.30
3868;DHT22;1949;48.152;11.528;2022-07-09T06:56:28;22.20;41.30
3868;DHT22;1949;48.152;11.528;2022-07-09T06:58:54;22.20;41.20
3868;DHT22;1949;48.152;11.528;2022-07-09T07:01:20;22.20;41.30
3868;DHT22;1949;48.152;11.528;2022-07-09T07:03:50;22.20;41.20
3868;DHT22;1949;48.152;11.528;2022-07-09T07:06:17;22.30;41.20
3868;DHT22;1949;48.152;11.528;2022-07-09T07:08:43;22.20;41.10
3868;DHT22;1949;48.152;11.528;2022-07-09T07:11:10;22.20;41.10
3868;DHT22;1949;48.152;11.528;2022-07-09T07:13:37;22.20;41.10
3868;DHT22;1949;48.152;11.528;2022-07-09T07:16:02;22.20;41.20
3868;DHT22;1949;48.152;11.528;2022-07-09T07:18:30;22.20;41.20
3868;DHT22;1949;48.152;11.528;2022-07-09T07:20:56;22.20;41.20
3868;DHT22;1949;48.152;11.528;2022-07-09T07:23:23;22.20;41.20
3868;DHT22;1949;48.152;11.528;2022-07-09T07:25:49;22.20;41.20
3868;DHT22;1949;48.152;11.528;2022-07-09T07:28:17;22.30;41.40
3868;DHT22;1949;48.152;11.528;2022-07-09T07:30:43;22.30;41.30
3868;DHT22;1949;48.152;11.528;2022-07-09T07:33:10;22.30;41.30
3868;DHT22;1949;48.152;11.528;2022-07-09T07:35:48;22.40;41.40
3868;DHT22;1949;48.152;11.528;2022-07-09T07:38:14;22.40;41.20
3868;DHT22;1949;48.152;11.528;2022-07-09T07:40:41;22.40;41.10
3868;DHT22;1949;48.152;11.528;2022-07-09T07:43:12;22.40;41.20
3868;DHT22;1949;48.152;11.528;2022-07-09T07:45:43;22.50;41.10
3868;DHT22;1949;48.152;11.528;2022-07-09T07:48:10;22.50;41.10
3868;DHT22;1949;48.152;11.528;2022-07-09T07:50:50;22.50;41.30
3868;DHT22;1949;48.152;11.528;2022-07-09T07:53:30;22.50;41.10
3868;DHT22;1949;48.152;11.528;2022-07-09T07:56:04;22.50;41.00
3868;DHT22;1949;48.152;11.528;2022-07-09T07:58:33;22.50;41.00
3868;DHT22;1949;48.152;11.528;2022-07-09T08:01:18;22.50;41.00
3868;DHT22;1949;48.152;11.528;2022-07-09T08:03:48;22.50;41.00
3868;DHT22;1949;48.152;11.528;2022-07-09T08:06:15;22.50;41.20
3868;DHT22;1949;48.152;11.528;2022-07-09T08:08:40;22.40;41.20
3868;DHT22;1949;48.152;11.528;2022-07-09T08:11:14;22.50;41.40
3868;DHT22;1949;48.152;11.528;2022-07-09T08:13:44;22.50;41.20
3868;DHT22;1949;48.152;11.528;2022-07-09T08:16:11;22.60;41.20
3868;DHT22;1949;48.152;11.528;2022-07-09T08:18:38;22.60;40.90
3868;DHT22;1949;48.152;11.528;2022-07-09T08:21:03;22.70;40.80
3868;DHT22;1949;48.152;11.528;2022-07-09T08:23:29;22.80;40.60
3868;DHT22;1949;48.152;11.528;2022-07-09T08:25:59;22.70;40.40
3868;DHT22;1949;48.152;11.528;2022-07-09T08:28:24;22.70;40.50
3868;DHT22;1949;48.152;11.528;2022-07-09T08:30:53;22.80;40.40
3868;DHT22;1949;48.152;11.528;2022-07-09T08:33:22;22.80;40.00
3868;DHT22;1949;48.152;11.528;2022-07-09T08:35:49;22.80;39.90
3868;DHT22;1949;48.152;11.528;2022-07-09T08:38:14;22.80;39.70
3868;DHT22;1949;48.152;11.528;2022-07-09T08:40:40;22.80;39.70
3868;DHT22;1949;48.152;11.528;2022-07-09T08:43:06;22.70;39.20
3868;DHT22;1949;48.152;11.528;2022-07-09T08:45:35;22.70;39.20
3868;DHT22;1949;48.152;11.528;2022-07-09T08:48:01;22.70;39.20
3868;DHT22;1949;48.152;11.528;2022-07-09T08:50:34;22.70;39.20
3868;DHT22;1949;48.152;11.528;2022-07-09T08:53:03;22.70;39.30
3868;DHT22;1949;48.152;11.528;2022-07-09T08:55:30;22.70;39.30
3868;DHT22;1949;48.152;11.528;2022-07-09T08:57:58;22.80;39.30
3868;DHT22;1949;48.152;11.528;2022-07-09T09:00:24;22.80;39.30
3868;DHT22;1949;48.152;11.528;2022-07-09T09:02:52;22.90;39.50
3868;DHT22;1949;48.152;11.528;2022-07-09T09:05:18;22.90;39.10
3868;DHT22;1949;48.152;11.528;2022-07-09T09:07:45;22.90;39.10
3868;DHT22;1949;48.152;11.528;2022-07-09T09:10:25;23.00;39.10
3868;DHT22;1949;48.152;11.528;2022-07-09T09:12:59;23.00;39.10
3868;DHT22;1949;48.152;11.528;2022-07-09T09:15:26;23.00;39.20
3868;DHT22;1949;48.152;11.528;2022-07-09T09:17:57;23.00;39.10
3868;DHT22;1949;48.152;11.528;2022-07-09T09:20:24;23.10;39.10
3868;DHT22;1949;48.152;11.528;2022-07-09T09:22:53;23.10;39.00
3868;DHT22;1949;48.152;11.528;2022-07-09T09:25:25;23.20;38.80
3868;DHT22;1949;48.152;11.528;2022-07-09T09:28:00;23.20;38.70
3868;DHT22;1949;48.152;11.528;2022-07-09T09:30:27;23.20;38.80
3868;DHT22;1949;48.152;11.528;2022-07-09T09:33:03;23.30;38.70
3868;DHT22;1949;48.152;11.528;2022-07-09T09:35:36;23.30;38.50
3868;DHT22;1949;48.152;11.528;2022-07-09T09:38:07;23.40;38.40
3868;DHT22;1949;48.152;11.528;2022-07-09T09:40:32;23.40;38.40
3868;DHT22;1949;48.152;11.528;2022-07-09T09:43:02;23.50;38.30
3868;DHT22;1949;48.152;11.528;2022-07-09T09:45:28;23.50;38.30
3868;DHT22;1949;48.152;11.528;2022-07-09T09:48:04;23.60;38.10
3868;DHT22;1949;48.152;11.528;2022-07-09T09:50:32;23.60;38.10
3868;DHT22;1949;48.152;11.528;2022-07-09T09:53:01;23.70;38.00
3868;DHT22;1949;48.152;11.528;2022-07-09T09:55:27;23.70;38.00
3868;DHT22;1949;48.152;11.528;2022-07-09T09:57:55;23.70;37.80
3868;DHT22;1949;48.152;11.528;2022-07-09T10:00:23;23.70;37.80
3868;DHT22;1949;48.152;11.528;2022-07-09T10:03:01;23.70;37.80
3868;DHT22;1949;48.152;11.528;2022-07-09T10:05:27;23.70;37.80
3868;DHT22;1949;48.152;11.528;2022-07-09T10:07:53;23.80;38.00
3868;DHT22;1949;48.152;11.528;2022-07-09T10:10:20;23.80;38.30
3868;DHT22;1949;48.152;11.528;2022-07-09T10:12:46;23.80;37.80
3868;DHT22;1949;48.152;11.528;2022-07-09T10:15:24;23.90;37.90
3868;DHT22;1949;48.152;11.528;2022-07-09T10:17:53;24.00;38.00
3868;DHT22;1949;48.152;11.528;2022-07-09T10:20:30;24.00;37.80
3868;DHT22;1949;48.152;11.528;2022-07-09T10:22:58;24.00;37.80
3868;DHT22;1949;48.152;11.528;2022-07-09T10:25:41;24.10;37.80
3868;DHT22;1949;48.152;11.528;2022-07-09T10:28:19;24.10;37.70
3868;DHT22;1949;48.152;11.528;2022-07-09T10:30:47;24.10;37.70
3868;DHT22;1949;48.152;11.528;2022-07-09T10:33:23;24.10;37.50
3868;DHT22;1949;48.152;11.528;2022-07-09T10:35:52;24.10;37.50
3868;DHT22;1949;48.152;11.528;2022-07-09T10:38:19;24.00;37.50
3868;DHT22;1949;48.152;11.528;2022-07-09T10:40:55;24.00;37.30
3868;DHT22;1949;48.152;11.528;2022-07-09T10:43:39;24.00;37.20
3868;DHT22;1949;48.152;11.528;2022-07-09T10:46:10;24.00;37.40
3868;DHT22;1949;48.152;11.528;2022-07-09T10:48:37;24.00;37.30
3868;DHT22;1949;48.152;11.528;2022-07-09T10:51:03;24.00;37.20
3868;DHT22;1949;48.152;11.528;2022-07-09T10:53:29;24.00;37.40
3868;DHT22;1949;48.152;11.528;2022-07-09T10:55:55;24.00;37.20
3868;DHT22;1949;48.152;11.528;2022-07-09T10:58:24;24.00;37.20
3868;DHT22;1949;48.152;11.528;2022-07-09T11:00:57;24.00;37.10
3868;DHT22;1949;48.152;11.528;2022-07-09T11:03:30;24.00;37.00
3868;DHT22;1949;48.152;11.528;2022-07-09T11:05:57;24.10;36.90
3868;DHT22;1949;48.152;11.528;2022-07-09T11:08:24;24.10;36.90
3868;DHT22;1949;48.152;11.528;2022-07-09T11:11:00;24.10;36.80
3868;DHT22;1949;48.152;11.528;2022-07-09T11:16:57;24.20;36.60
3868;DHT22;1949;48.152;11.528;2022-07-09T11:26:09;24.40;36.70
3868;DHT22;1949;48.152;11.528;2022-07-09T11:28:38;24.40;36.70
3868;DHT22;1949;48.152;11.528;2022-07-09T11:31:05;24.50;36.70
3868;DHT22;1949;48.152;11.528;2022-07-09T11:33:40;24.50;36.70
3868;DHT22;1949;48.152;11.528;2022-07-09T11:36:35;24.50;36.50
3868;DHT22;1949;48.152;11.528;2022-07-09T11:39:02;24.50;36.50
3868;DHT22;1949;48.152;11.528;2022-07-09T11:41:40;24.50;36.40
3868;DHT22;1949;48.152;11.528;2022-07-09T11:44:07;24.50;36.20
3868;DHT22;1949;48.152;11.528;2022-07-09T11:46:34;24.40;36.30
3868;DHT22;1949;48.152;11.528;2022-07-09T11:49:00;24.40;36.40
3868;DHT22;1949;48.152;11.528;2022-07-09T11:54:26;24.50;36.50
3868;DHT22;1949;48.152;11.528;2022-07-09T12:03:12;24.60;36.20
3868;DHT22;1949;48.152;11.528;2022-07-09T12:05:59;24.70;36.10
3868;DHT22;1949;48.152;11.528;2022-07-09T12:08:30;24.70;36.00
3868;DHT22;1949;48.152;11.528;2022-07-09T12:11:00;24.80;36.00
3868;DHT22;1949;48.152;11.528;2022-07-09T12:14:02;24.80;36.00
3868;DHT22;1949;48.152;11.528;2022-07-09T12:16:40;24.80;36.00
3868;DHT22;1949;48.152;11.528;2022-07-09T12:19:35;24.90;36.00
3868;DHT22;1949;48.152;11.528;2022-07-09T12:22:33;25.00;35.80
3868;DHT22;1949;48.152;11.528;2022-07-09T12:24:58;25.00;35.80
3868;DHT22;1949;48.152;11.528;2022-07-09T12:27:24;25.00;35.50
3868;DHT22;1949;48.152;11.528;2022-07-09T12:29:50;25.00;35.40
3868;DHT22;1949;48.152;11.528;2022-07-09T12:32:22;25.00;35.30
3868;DHT22;1949;48.152;11.528;2022-07-09T12:34:48;25.00;35.20
3868;DHT22;1949;48.152;11.528;2022-07-09T12:37:18;25.10;35.20
3868;DHT22;1949;48.152;11.528;2022-07-09T12:39:44;25.10;35.00
3868;DHT22;1949;48.152;11.528;2022-07-09T12:42:10;25.20;35.30
3868;DHT22;1949;48.152;11.528;2022-07-09T12:44:38;25.20;35.20
3868;DHT22;1949;48.152;11.528;2022-07-09T12:47:08;25.30;35.00
3868;DHT22;1949;48.152;11.528;2022-07-09T12:49:38;25.30;34.90
3868;DHT22;1949;48.152;11.528;2022-07-09T12:52:09;25.40;34.80
3868;DHT22;1949;48.152;11.528;2022-07-09T12:54:38;25.40;34.60
3868;DHT22;1949;48.152;11.528;2022-07-09T12:57:04;25.50;34.80
3868;DHT22;1949;48.152;11.528;2022-07-09T12:59:39;25.50;34.90
3868;DHT22;1949;48.152;11.528;2022-07-09T13:02:05;25.50;34.70
3868;DHT22;1949;48.152;11.528;2022-07-09T13:04:31;25.50;34.60
3868;DHT22;1949;48.152;11.528;2022-07-09T13:07:02;25.50;34.50
3868;DHT22;1949;48.152;11.528;2022-07-09T13:09:34;25.50;34.40
3868;DHT22;1949;48.152;11.528;2022-07-09T13:12:02;25.50;34.50
3868;DHT22;1949;48.152;11.528;2022-07-09T13:14:29;25.50;34.50
3868;DHT22;1949;48.152;11.528;2022-07-09T13:16:55;25.60;34.50
3868;DHT22;1949;48.152;11.528;2022-07-09T13:19:30;25.60;34.60
3868;DHT22;1949;48.152;11.528;2022-07-09T13:22:01;25.70;34.50
3868;DHT22;1949;48.152;11.528;2022-07-09T13:24:29;25.70;34.50
3868;DHT22;1949;48.152;11.528;2022-07-09T13:26:55;25.70;34.40
3868;DHT22;1949;48.152;11.528;2022-07-09T13:29:21;25.80;34.50
3868;DHT22;1949;48.152;11.528;2022-07-09T13:31:47;25.90;34.40
3868;DHT22;1949;48.152;11.528;2022-07-09T13:34:13;26.00;34.30
3868;DHT22;1949;48.152;11.528;2022-07-09T13:36:39;26.00;34.40
3868;DHT22;1949;48.152;11.528;2022-07-09T13:39:05;26.10;34.10
3868;DHT22;1949;48.152;11.528;2022-07-09T13:41:41;26.00;34.00
3868;DHT22;1949;48.152;11.528;2022-07-09T13:44:07;26.10;34.00
3868;DHT22;1949;48.152;11.528;2022-07-09T13:46:33;26.00;33.80
3868;DHT22;1949;48.152;11.528;2022-07-09T13:48:59;26.00;34.00
3868;DHT22;1949;48.152;11.528;2022-07-09T13:51:25;26.00;34.00
3868;DHT22;1949;48.152;11.528;2022-07-09T13:53:55;26.10;33.90
3868;DHT22;1949;48.152;11.528;2022-07-09T13:56:23;26.10;33.80
3868;DHT22;1949;48.152;11.528;2022-07-09T13:59:00;26.10;34.00
3868;DHT22;1949;48.152;11.528;2022-07-09T14:01:29;26.10;34.20
3868;DHT22;1949;48.152;11.528;2022-07-09T14:03:59;26.10;34.00
3868;DHT22;1949;48.152;11.528;2022-07-09T14:06:25;26.10;34.00
3868;DHT22;1949;48.152;11.528;2022-07-09T14:08:53;26.20;33.90
3868;DHT22;1949;48.152;11.528;2022-07-09T14:11:19;26.30;33.80
3868;DHT22;1949;48.152;11.528;2022-07-09T14:13:45;26.30;33.80
3868;DHT22;1949;48.152;11.528;2022-07-09T14:16:18;26.30;33.90
3868;DHT22;1949;48.152;11.528;2022-07-09T14:18:45;26.30;33.90
3868;DHT22;1949;48.152;11.528;2022-07-09T14:21:15;26.40;33.50
3868;DHT22;1949;48.152;11.528;2022-07-09T14:23:43;26.50;33.50
3868;DHT22;1949;48.152;11.528;2022-07-09T14:26:15;26.50;33.50
3868;DHT22;1949;48.152;11.528;2022-07-09T14:28:43;26.60;33.40
3868;DHT22;1949;48.152;11.528;2022-07-09T14:31:11;26.70;33.50
3868;DHT22;1949;48.152;11.528;2022-07-09T14:33:42;26.90;33.50
3868;DHT22;1949;48.152;11.528;2022-07-09T14:36:10;27.00;33.10
3868;DHT22;1949;48.152;11.528;2022-07-09T14:38:37;27.10;32.80
3868;DHT22;1949;48.152;11.528;2022-07-09T14:41:06;27.10;32.50
3868;DHT22;1949;48.152;11.528;2022-07-09T14:43:31;27.10;32.60
3868;DHT22;1949;48.152;11.528;2022-07-09T14:45:57;27.10;32.60
3868;DHT22;1949;48.152;11.528;2022-07-09T14:48:23;27.00;32.50
3868;DHT22;1949;48.152;11.528;2022-07-09T14:50:50;27.00;32.50
3868;DHT22;1949;48.152;11.528;2022-07-09T14:53:17;26.90;32.50
3868;DHT22;1949;48.152;11.528;2022-07-09T14:55:44;26.80;32.70
3868;DHT22;1949;48.152;11.528;2022-07-09T14:58:10;26.70;32.70
3868;DHT22;1949;48.152;11.528;2022-07-09T15:00:36;26.60;32.80
3868;DHT22;1949;48.152;11.528;2022-07-09T15:03:02;26.60;32.90
3868;DHT22;1949;48.152;11.528;2022-07-09T15:05:28;26.60;33.60
3868;DHT22;1949;48.152;11.528;2022-07-09T15:07:54;26.50;32.90
3868;DHT22;1949;48.152;11.528;2022-07-09T15:10:19;26.50;33.10
3868;DHT22;1949;48.152;11.528;2022-07-09T15:12:48;26.50;33.20
3868;DHT22;1949;48.152;11.528;2022-07-09T15:15:14;26.50;33.10
3868;DHT22;1949;48.152;11.528;2022-07-09T15:17:40;26.40;33.20
3868;DHT22;1949;48.152;11.528;2022-07-09T15:20:08;26.40;33.30
3868;DHT22;1949;48.152;11.528;2022-07-09T15:22:34;26.40;33.20
3868;DHT22;1949;48.152;11.528;2022-07-09T15:25:00;26.30;33.30
3868;DHT22;1949;48.152;11.528;2022-07-09T15:27:31;26.30;33.40
3868;DHT22;1949;48.152;11.528;2022-07-09T15:29:57;26.20;33.40
3868;DHT22;1949;48.152;11.528;2022-07-09T15:32:24;26.30;33.60
3868;DHT22;1949;48.152;11.528;2022-07-09T15:34:49;26.30;33.40
3868;DHT22;1949;48.152;11.528;2022-07-09T15:37:15;26.30;33.20
3868;DHT22;1949;48.152;11.528;2022-07-09T15:39:45;26.40;33.30
3868;DHT22;1949;48.152;11.528;2022-07-09T15:42:17;26.40;33.20
3868;DHT22;1949;48.152;11.528;2022-07-09T15:44:45;26.40;33.00
3868;DHT22;1949;48.152;11.528;2022-07-09T15:47:17;26.30;32.90
3868;DHT22;1949;48.152;11.528;2022-07-09T15:49:49;26.30;33.00
3868;DHT22;1949;48.152;11.528;2022-07-09T15:52:15;26.30;33.00
3868;DHT22;1949;48.152;11.528;2022-07-09T15:54:44;26.30;33.00
3868;DHT22;1949;48.152;11.528;2022-07-09T15:57:18;26.30;33.10
3868;DHT22;1949;48.152;11.528;2022-07-09T15:59:49;26.30;33.10
3868;DHT22;1949;48.152;11.528;2022-07-09T16:02:15;26.30;33.20
3868;DHT22;1949;48.152;11.528;2022-07-09T16:04:48;26.30;33.20
3868;DHT22;1949;48.152;11.528;2022-07-09T16:07:13;26.30;33.20
3868;DHT22;1949;48.152;11.528;2022-07-09T16:09:40;26.30;33.20
3868;DHT22;1949;48.152;11.528;2022-07-09T16:12:07;26.30;33.10
3868;DHT22;1949;48.152;11.528;2022-07-09T16:14:52;26.30;33.10